createdAt,value
2022-09-13T00:03:13.860Z,7.10
2022-09-13T00:07:17.585Z,7.40
2022-09-13T00:11:13.811Z,6.90
2022-09-13T00:15:10.497Z,6.50
2022-09-13T00:19:05.189Z,6.80
2022-09-13T00:22:58.877Z,7.10
2022-09-13T00:27:05.586Z,7.40
2022-09-13T00:30:58.616Z,7.10
2022-09-13T00:34:34.211Z,7.70
2022-09-13T00:38:38.102Z,7.80
2022-09-13T00:42:42.008Z,7.50
2022-09-13T00:46:38.759Z,7.60
2022-09-13T00:50:41.289Z,8.10
2022-09-13T00:54:28.377Z,7.80
2022-09-13T00:58:32.228Z,8.10
2022-09-13T01:02:38.846Z,8.20
2022-09-13T01:06:38.993Z,8.90
2022-09-13T01:10:42.889Z,8.00
2022-09-13T01:14:39.797Z,8.70
2022-09-13T01:18:15.696Z,8.50
2022-09-13T01:22:34.921Z,8.40
2022-09-13T01:26:44.639Z,8.90
2022-09-13T01:30:42.954Z,8.60
2022-09-13T01:34:58.690Z,8.50
2022-09-13T01:38:42.490Z,8.80
2022-09-13T01:43:04.231Z,8.40
2022-09-13T01:47:20.091Z,9.00
2022-09-13T01:51:39.815Z,10.30
2022-09-13T01:55:29.663Z,9.40
2022-09-13T01:59:36.488Z,8.60
2022-09-13T02:03:46.309Z,9.10
2022-09-13T02:07:31.321Z,9.10
2022-09-13T02:11:25.119Z,10.30
2022-09-13T02:15:31.792Z,9.60
2022-09-13T02:19:26.841Z,8.40
2022-09-13T02:23:30.709Z,8.40
2022-09-13T02:27:25.046Z,8.50
2022-09-13T02:31:28.537Z,9.30
2022-09-13T02:35:44.398Z,9.30
2022-09-13T02:39:55.991Z,8.80
2022-09-13T02:43:57.380Z,9.20
2022-09-13T02:48:05.022Z,10.70
2022-09-13T02:52:11.523Z,8.60
2022-09-13T02:56:39.708Z,9.60
2022-09-13T03:00:33.492Z,9.80
2022-09-13T03:04:37.353Z,9.50
2022-09-13T03:08:23.613Z,9.30
2022-09-13T03:12:36.497Z,10.30
2022-09-13T03:16:51.078Z,9.60
2022-09-13T03:21:00.877Z,11.50
2022-09-13T03:25:26.537Z,11.70
2022-09-13T03:29:31.755Z,11.10
2022-09-13T03:33:29.757Z,10.90
2022-09-13T03:37:35.389Z,9.90
2022-09-13T03:41:35.236Z,11.40
2022-09-13T03:45:21.624Z,11.20
2022-09-13T03:49:18.086Z,11.70
2022-09-13T03:53:04.394Z,11.60
2022-09-13T03:57:17.277Z,11.20
2022-09-13T04:01:21.200Z,10.20
2022-09-13T04:05:24.012Z,10.70
2022-09-13T04:08:57.833Z,9.90
2022-09-13T04:12:44.596Z,11.10
2022-09-13T04:16:08.472Z,11.30
2022-09-13T04:20:02.999Z,11.70
2022-09-13T04:23:44.467Z,11.10
2022-09-13T04:27:42.019Z,11.80
2022-09-13T04:31:28.761Z,10.50
2022-09-13T04:35:22.428Z,10.90
2022-09-13T04:38:49.274Z,11.60
2022-09-13T04:42:41.793Z,10.50
2022-09-13T04:46:15.513Z,11.20
2022-09-13T04:49:50.624Z,10.60
2022-09-13T04:53:45.518Z,12.10
2022-09-13T04:57:09.012Z,11.90
2022-09-13T05:00:51.523Z,11.40
2022-09-13T05:04:46.340Z,11.30
2022-09-13T05:08:15.071Z,11.40
2022-09-13T05:12:00.438Z,12.40
2022-09-13T05:15:56.764Z,13.20
2022-09-13T05:19:40.108Z,13.90
2022-09-13T05:23:24.807Z,14.60
2022-09-13T05:26:46.023Z,14.10
2022-09-13T05:30:32.635Z,16.00
2022-09-13T05:34:18.839Z,16.40
2022-09-13T05:37:49.473Z,15.90
2022-09-13T05:41:34.183Z,16.40
2022-09-13T05:44:59.874Z,15.20
2022-09-13T05:48:33.645Z,15.60
2022-09-13T05:51:45.896Z,15.80
2022-09-13T05:54:57.435Z,16.20
2022-09-13T05:58:40.297Z,16.60
2022-09-13T06:01:55.309Z,16.00
2022-09-13T06:05:33.792Z,18.00
2022-09-13T06:09:27.957Z,18.10
2022-09-13T06:13:32.093Z,21.20
2022-09-13T06:17:36.256Z,21.60
2022-09-13T06:20:54.789Z,22.20
2022-09-13T06:24:51.311Z,23.20
2022-09-13T06:28:00.104Z,22.50
2022-09-13T06:31:43.909Z,25.20
2022-09-13T06:35:48.342Z,23.20
2022-09-13T06:38:54.868Z,21.40
2022-09-13T06:42:27.502Z,21.80
2022-09-13T06:46:11.326Z,20.40
2022-09-13T06:49:39.369Z,19.00
2022-09-13T06:53:05.344Z,18.60
2022-09-13T06:56:58.249Z,16.50
2022-09-13T07:00:55.917Z,14.70
2022-09-13T07:04:20.720Z,14.70
2022-09-13T07:07:32.716Z,14.00
2022-09-13T07:10:45.515Z,12.70
2022-09-13T07:14:08.339Z,13.00
2022-09-13T07:17:15.925Z,12.80
2022-09-13T07:20:12.796Z,10.60
2022-09-13T07:23:19.301Z,11.60
2022-09-13T07:26:12.657Z,11.30
2022-09-13T07:29:52.953Z,11.00
2022-09-13T07:33:56.944Z,13.40
2022-09-13T07:37:20.642Z,11.50
2022-09-13T07:40:36.827Z,11.80
2022-09-13T07:43:37.484Z,12.70
2022-09-13T07:49:45.746Z,11.20
2022-09-13T07:52:59.457Z,10.50
2022-09-13T07:56:21.299Z,9.20
2022-09-13T07:59:37.089Z,9.20
2022-09-13T08:02:32.584Z,9.70
2022-09-13T08:05:42.888Z,10.00
2022-09-13T08:09:13.705Z,9.80
2022-09-13T08:12:39.746Z,8.30
2022-09-13T08:15:48.842Z,7.90
2022-09-13T08:19:23.433Z,8.10
2022-09-13T08:22:57.221Z,8.30
2022-09-13T08:26:25.207Z,6.80
2022-09-13T08:30:01.775Z,7.50
2022-09-13T08:33:35.553Z,7.60
2022-09-13T08:36:32.245Z,6.00
2022-09-13T08:39:48.708Z,6.30
2022-09-13T08:42:49.680Z,6.80
2022-09-13T08:46:19.322Z,6.10
2022-09-13T08:49:50.801Z,5.90
2022-09-13T08:53:08.404Z,7.10
2022-09-13T08:56:55.981Z,5.80
2022-09-13T09:00:50.021Z,6.10
2022-09-13T09:04:09.490Z,5.80
2022-09-13T09:07:27.582Z,5.50
2022-09-13T09:10:51.179Z,5.60
2022-09-13T09:14:11.154Z,5.80
2022-09-13T09:16:58.500Z,6.10
2022-09-13T09:20:12.116Z,5.50
2022-09-13T09:24:07.458Z,4.90
2022-09-13T09:27:57.425Z,5.70
2022-09-13T09:31:23.981Z,4.80
2022-09-13T09:34:58.403Z,4.70
2022-09-13T09:38:03.045Z,4.70
2022-09-13T09:41:36.022Z,4.90
2022-09-13T09:44:33.887Z,6.20
2022-09-13T09:47:29.628Z,5.40
2022-09-13T09:50:56.273Z,4.80
2022-09-13T09:54:39.237Z,6.20
2022-09-13T09:58:05.073Z,4.90
2022-09-13T10:01:46.741Z,4.90
2022-09-13T10:04:54.515Z,4.80
2022-09-13T10:08:22.736Z,6.00
2022-09-13T10:11:47.794Z,4.80
2022-09-13T10:15:12.738Z,5.10
2022-09-13T10:18:44.347Z,5.90
2022-09-13T10:21:48.473Z,5.20
2022-09-13T10:25:02.806Z,6.10
2022-09-13T10:28:50.705Z,5.60
2022-09-13T10:32:20.234Z,6.00
2022-09-13T10:35:32.033Z,6.10
2022-09-13T10:38:50.355Z,7.10
2022-09-13T10:41:59.217Z,7.00
2022-09-13T10:45:22.577Z,7.30
2022-09-13T10:48:28.595Z,7.30
2022-09-13T10:51:39.801Z,7.40
2022-09-13T10:54:49.996Z,6.70
2022-09-13T10:57:42.627Z,7.30
2022-09-13T11:01:21.613Z,6.80
2022-09-13T11:04:42.611Z,6.70
2022-09-13T11:07:38.204Z,7.70
2022-09-13T11:11:07.383Z,6.40
2022-09-13T11:14:49.409Z,7.60
2022-09-13T11:18:21.913Z,7.20
2022-09-13T11:21:46.762Z,6.50
2022-09-13T11:28:26.783Z,6.60
2022-09-13T11:32:09.561Z,6.50
2022-09-13T11:35:37.096Z,6.10
2022-09-13T11:39:13.707Z,7.00
2022-09-13T11:43:14.835Z,6.80
2022-09-13T11:46:45.845Z,6.30
2022-09-13T11:50:13.683Z,7.00
2022-09-13T11:54:25.392Z,7.10
2022-09-13T11:57:54.768Z,8.10
2022-09-13T12:01:48.698Z,8.00
2022-09-13T12:05:22.017Z,6.40
2022-09-13T12:09:18.738Z,6.80
2022-09-13T12:12:29.172Z,6.40
2022-09-13T12:15:51.762Z,6.60
2022-09-13T12:19:39.931Z,6.60
2022-09-13T12:22:55.418Z,6.40
2022-09-13T12:26:14.857Z,6.90
2022-09-13T12:29:18.151Z,5.70
2022-09-13T12:32:15.407Z,5.60
2022-09-13T12:36:00.151Z,6.90
2022-09-13T12:39:38.530Z,6.10
2022-09-13T12:43:20.146Z,7.30
2022-09-13T12:46:57.508Z,6.50
2022-09-13T12:50:21.579Z,6.80
2022-09-13T12:53:42.588Z,7.20
2022-09-13T12:56:40.405Z,6.30
2022-09-13T13:00:51.419Z,6.50
2022-09-13T13:04:24.321Z,5.70
2022-09-13T13:07:48.792Z,6.50
2022-09-13T13:11:28.194Z,6.50
2022-09-13T13:15:00.827Z,6.70
2022-09-13T13:18:48.966Z,6.60
2022-09-13T13:21:55.787Z,5.60
2022-09-13T13:24:49.165Z,6.90
2022-09-13T13:28:02.642Z,7.30
2022-09-13T13:30:57.505Z,6.80
2022-09-13T13:34:20.331Z,7.40
2022-09-13T13:37:29.243Z,7.00
2022-09-13T13:40:41.727Z,6.90
2022-09-13T13:43:54.586Z,6.70
2022-09-13T13:46:40.815Z,6.60
2022-09-13T13:50:04.051Z,7.10
2022-09-13T13:53:05.657Z,6.50
2022-09-13T13:56:08.516Z,6.90
2022-09-13T13:59:45.612Z,7.00
2022-09-13T14:03:04.724Z,6.00
2022-09-13T14:06:46.426Z,6.60
2022-09-13T14:10:03.014Z,6.00
2022-09-13T14:13:26.034Z,6.00
2022-09-13T14:16:41.476Z,5.60
2022-09-13T14:19:51.455Z,5.20
2022-09-13T14:22:42.102Z,5.20
2022-09-13T14:26:18.681Z,5.20
2022-09-13T14:29:37.472Z,5.50
2022-09-13T14:32:42.446Z,5.50
2022-09-13T14:36:06.076Z,5.60
2022-09-13T14:39:12.118Z,6.00
2022-09-13T14:43:09.962Z,6.00
2022-09-13T14:47:05.593Z,5.50
2022-09-13T14:50:21.443Z,6.70
2022-09-13T14:53:47.399Z,6.40
2022-09-13T14:56:41.870Z,6.70
2022-09-13T15:00:13.643Z,6.20
2022-09-13T15:03:05.254Z,7.90
2022-09-13T15:05:57.345Z,7.60
2022-09-13T15:09:31.057Z,7.20
2022-09-13T15:13:15.816Z,6.60
2022-09-13T15:16:58.257Z,7.00
2022-09-13T15:20:22.390Z,6.90
2022-09-13T15:23:55.776Z,6.40
2022-09-13T15:27:36.316Z,7.80
2022-09-13T15:30:52.799Z,6.60
2022-09-13T15:34:11.487Z,7.50
2022-09-13T15:37:56.241Z,6.90
2022-09-13T15:41:33.304Z,7.00
2022-09-13T15:44:59.392Z,7.10
2022-09-13T15:48:21.146Z,6.40
2022-09-13T15:51:51.901Z,6.70
2022-09-13T15:55:14.501Z,6.80
2022-09-13T15:58:02.852Z,8.10
2022-09-13T16:02:06.819Z,7.50
2022-09-13T16:05:50.521Z,7.50
2022-09-13T16:09:25.124Z,7.90
2022-09-13T16:12:58.475Z,7.90
2022-09-13T16:16:12.846Z,7.90
2022-09-13T16:19:49.442Z,7.10
2022-09-13T16:22:52.767Z,7.70
2022-09-13T16:26:07.884Z,9.30
2022-09-13T16:30:11.947Z,9.60
2022-09-13T16:34:05.761Z,10.50
2022-09-13T16:37:10.082Z,10.80
2022-09-13T16:40:45.386Z,11.50
2022-09-13T16:44:29.161Z,11.80
2022-09-13T16:47:52.738Z,12.90
2022-09-13T16:51:17.978Z,11.40
2022-09-13T16:55:05.420Z,13.90
2022-09-13T16:58:28.715Z,13.20
2022-09-13T17:01:51.180Z,14.50
2022-09-13T17:05:14.498Z,14.90
2022-09-13T17:09:19.071Z,16.40
2022-09-13T17:12:30.638Z,16.50
2022-09-13T17:15:56.792Z,17.60
2022-09-13T17:19:02.729Z,15.90
2022-09-13T17:22:32.759Z,16.50
2022-09-13T17:26:23.103Z,16.30
2022-09-13T17:29:46.432Z,16.30
2022-09-13T17:33:03.722Z,16.40
2022-09-13T17:36:36.920Z,16.60
2022-09-13T17:39:49.869Z,16.10
2022-09-13T17:42:58.418Z,16.50
2022-09-13T17:46:45.329Z,16.40
2022-09-13T17:49:59.797Z,14.20
2022-09-13T17:53:43.283Z,16.70
2022-09-13T17:57:13.517Z,16.20
2022-09-13T18:00:47.189Z,17.20
2022-09-13T18:04:07.676Z,18.60
2022-09-13T18:07:23.220Z,18.40
2022-09-13T18:11:12.640Z,17.30
2022-09-13T18:14:29.645Z,19.30
2022-09-13T18:17:44.899Z,17.60
2022-09-13T18:21:29.725Z,17.40
2022-09-13T18:24:39.348Z,18.70
2022-09-13T18:28:01.432Z,17.90
2022-09-13T18:31:27.416Z,18.60
2022-09-13T18:34:36.036Z,17.80
2022-09-13T18:38:05.122Z,17.80
2022-09-13T18:41:41.866Z,18.70
2022-09-13T18:45:03.870Z,17.40
2022-09-13T18:48:40.207Z,18.40
2022-09-13T18:51:59.836Z,17.90
2022-09-13T18:55:16.850Z,17.90
2022-09-13T18:58:53.902Z,17.80
2022-09-13T19:02:47.861Z,18.10
2022-09-13T19:06:01.346Z,17.90
2022-09-13T19:09:26.221Z,16.10
2022-09-13T19:12:39.527Z,16.30
2022-09-13T19:15:53.281Z,16.70
2022-09-13T19:19:21.086Z,16.30
2022-09-13T19:22:29.379Z,17.00
2022-09-13T19:25:58.241Z,18.80
2022-09-13T19:29:47.266Z,19.10
2022-09-13T19:33:24.778Z,16.10
2022-09-13T19:37:08.115Z,14.60
2022-09-13T19:40:35.240Z,13.30
2022-09-13T19:43:50.185Z,14.50
2022-09-13T19:47:45.066Z,18.00
2022-09-13T19:50:52.515Z,17.00
2022-09-13T19:54:26.405Z,17.20
2022-09-13T19:58:09.849Z,15.30
2022-09-13T20:01:46.547Z,15.70
2022-09-13T20:05:35.676Z,14.30
2022-09-13T20:09:13.525Z,15.60
2022-09-13T20:12:30.533Z,16.10
2022-09-13T20:16:15.443Z,13.10
2022-09-13T20:20:01.881Z,15.20
2022-09-13T20:23:36.316Z,15.60
2022-09-13T20:27:03.114Z,18.00
2022-09-13T20:30:26.427Z,16.90
2022-09-13T20:33:59.905Z,15.10
2022-09-13T20:41:15.665Z,17.80
2022-09-13T20:48:19.934Z,16.30
2022-09-13T20:52:03.499Z,17.50
2022-09-13T20:55:48.975Z,16.20
2022-09-13T20:59:00.531Z,17.00
2022-09-13T21:02:24.552Z,15.10
2022-09-13T21:05:56.422Z,15.50
2022-09-13T21:09:40.082Z,14.60
2022-09-13T21:12:53.450Z,16.10
2022-09-13T21:16:10.062Z,15.40
2022-09-13T21:19:37.800Z,17.80
2022-09-13T21:23:01.720Z,20.50
2022-09-13T21:26:38.990Z,19.10
2022-09-13T21:29:54.763Z,18.60
2022-09-13T21:33:52.131Z,20.00
2022-09-13T21:36:54.899Z,18.60
2022-09-13T21:40:28.819Z,18.00
2022-09-13T21:44:26.866Z,18.10
2022-09-13T21:47:33.143Z,17.70
2022-09-13T21:50:59.449Z,18.60
2022-09-13T21:54:12.255Z,17.40
2022-09-13T21:57:25.869Z,17.70
2022-09-13T22:01:29.871Z,16.80
2022-09-13T22:05:12.712Z,18.60
2022-09-13T22:08:58.783Z,18.50
2022-09-13T22:12:13.832Z,19.10
2022-09-13T22:15:57.623Z,16.50
2022-09-13T22:19:33.259Z,17.00
2022-09-13T22:22:56.166Z,17.50
2022-09-13T22:26:32.373Z,16.70
2022-09-13T22:30:06.109Z,17.00
2022-09-13T22:33:52.871Z,16.50
2022-09-13T22:37:21.397Z,17.90
2022-09-13T22:40:45.884Z,17.00
2022-09-13T22:44:10.784Z,17.20
2022-09-13T22:48:04.585Z,17.30
2022-09-13T22:51:38.852Z,16.10
2022-09-13T22:55:42.666Z,15.30
2022-09-13T22:59:19.270Z,13.60
2022-09-13T23:03:23.172Z,14.50
2022-09-13T23:07:19.918Z,13.50
2022-09-13T23:10:55.002Z,14.70
2022-09-13T23:14:22.275Z,15.70
2022-09-13T23:18:08.139Z,15.50
2022-09-13T23:22:03.523Z,14.50
2022-09-13T23:25:56.487Z,16.00
2022-09-13T23:29:25.813Z,16.10
2022-09-13T23:33:23.423Z,15.90
2022-09-13T23:37:17.091Z,16.20
2022-09-13T23:41:13.397Z,14.30
2022-09-13T23:44:49.019Z,16.30
2022-09-13T23:48:20.520Z,15.40
2022-09-13T23:52:15.272Z,15.50
2022-09-13T23:56:03.781Z,15.20
